sensor_id;sensor_type;location;lat;lon;timestamp;pressure;altitude;pressure_sealevel;temperature;humidity
73151;BME280;61354;50.758;6.106;2024-02-14T00:02:12;99061.44;;;10.23;87.90
73151;BME280;61354;50.758;6.106;2024-02-14T00:04:56;99060.22;;;9.76;90.45
73151;BME280;61354;50.758;6.106;2024-02-14T00:07:40;99057.03;;;10.06;89.51
73151;BME280;61354;50.758;6.106;2024-02-14T00:10:24;99057.97;;;9.82;90.05
73151;BME280;61354;50.758;6.106;2024-02-14T00:13:08;99050.59;;;10.02;89.39
73151;BME280;61354;50.758;6.106;2024-02-14T00:15:53;99051.38;;;9.86;89.90
73151;BME280;61354;50.758;6.106;2024-02-14T00:18:37;99052.84;;;9.96;90.65
73151;BME280;61354;50.758;6.106;2024-02-14T00:21:21;99059.91;;;10.09;90.54
73151;BME280;61354;50.758;6.106;2024-02-14T00:24:05;99049.88;;;10.05;90.45
73151;BME280;61354;50.758;6.106;2024-02-14T00:26:52;99056.34;;;10.09;91.70
73151;BME280;61354;50.758;6.106;2024-02-14T00:29:37;99054.63;;;10.04;92.14
73151;BME280;61354;50.758;6.106;2024-02-14T00:32:21;99049.09;;;10.04;91.62
73151;BME280;61354;50.758;6.106;2024-02-14T00:35:06;99040.75;;;10.04;92.33
73151;BME280;61354;50.758;6.106;2024-02-14T00:37:50;99040.13;;;10.11;91.91
73151;BME280;61354;50.758;6.106;2024-02-14T00:40:34;99032.00;;;10.18;91.72
73151;BME280;61354;50.758;6.106;2024-02-14T00:43:18;99028.34;;;10.30;91.62
73151;BME280;61354;50.758;6.106;2024-02-14T00:46:02;99032.47;;;10.36;91.62
73151;BME280;61354;50.758;6.106;2024-02-14T00:48:47;99029.88;;;10.43;91.40
73151;BME280;61354;50.758;6.106;2024-02-14T00:51:31;99028.03;;;10.19;93.04
73151;BME280;61354;50.758;6.106;2024-02-14T00:54:15;99022.69;;;10.10;93.52
73151;BME280;61354;50.758;6.106;2024-02-14T00:56:59;99021.34;;;10.36;92.21
73151;BME280;61354;50.758;6.106;2024-02-14T00:59:43;99018.06;;;10.30;92.75
73151;BME280;61354;50.758;6.106;2024-02-14T01:02:27;99014.03;;;10.28;93.46
73151;BME280;61354;50.758;6.106;2024-02-14T01:05:11;99015.97;;;10.11;95.05
73151;BME280;61354;50.758;6.106;2024-02-14T01:07:55;99011.41;;;10.19;95.07
73151;BME280;61354;50.758;6.106;2024-02-14T01:10:39;99018.22;;;10.21;95.22
73151;BME280;61354;50.758;6.106;2024-02-14T01:13:23;99023.03;;;10.09;96.51
73151;BME280;61354;50.758;6.106;2024-02-14T01:16:07;99019.72;;;10.03;97.03
73151;BME280;61354;50.758;6.106;2024-02-14T01:18:51;99032.88;;;10.22;96.50
73151;BME280;61354;50.758;6.106;2024-02-14T01:21:36;99025.97;;;10.16;96.96
73151;BME280;61354;50.758;6.106;2024-02-14T01:24:20;99007.38;;;10.16;96.69
73151;BME280;61354;50.758;6.106;2024-02-14T01:27:06;99023.00;;;10.37;95.67
73151;BME280;61354;50.758;6.106;2024-02-14T01:29:52;99020.81;;;10.14;96.84
73151;BME280;61354;50.758;6.106;2024-02-14T01:32:38;99022.25;;;10.08;97.11
73151;BME280;61354;50.758;6.106;2024-02-14T01:35:22;99017.16;;;10.42;95.75
73151;BME280;61354;50.758;6.106;2024-02-14T01:38:06;99016.25;;;10.54;95.01
73151;BME280;61354;50.758;6.106;2024-02-14T01:40:50;99032.63;;;10.43;95.78
73151;BME280;61354;50.758;6.106;2024-02-14T01:43:35;99016.88;;;10.31;97.31
73151;BME280;61354;50.758;6.106;2024-02-14T01:46:19;99014.47;;;10.30;97.74
73151;BME280;61354;50.758;6.106;2024-02-14T01:49:04;99024.59;;;10.38;98.13
73151;BME280;61354;50.758;6.106;2024-02-14T01:51:48;99022.84;;;10.49;98.11
73151;BME280;61354;50.758;6.106;2024-02-14T01:54:33;99024.13;;;10.52;98.23
73151;BME280;61354;50.758;6.106;2024-02-14T01:57:18;99023.56;;;10.14;100.00
73151;BME280;61354;50.758;6.106;2024-02-14T02:00:03;99020.19;;;10.21;100.00
73151;BME280;61354;50.758;6.106;2024-02-14T02:02:52;99014.09;;;10.31;100.00
73151;BME280;61354;50.758;6.106;2024-02-14T02:05:36;99006.06;;;10.42;99.85
73151;BME280;61354;50.758;6.106;2024-02-14T02:08:20;99023.22;;;10.32;100.00
73151;BME280;61354;50.758;6.106;2024-02-14T02:11:05;99024.41;;;10.31;100.00
73151;BME280;61354;50.758;6.106;2024-02-14T02:13:49;99027.47;;;10.26;100.00
73151;BME280;61354;50.758;6.106;2024-02-14T02:16:33;99034.34;;;10.32;100.00
73151;BME280;61354;50.758;6.106;2024-02-14T02:19:17;99035.69;;;10.38;99.71
73151;BME280;61354;50.758;6.106;2024-02-14T02:22:02;99049.09;;;10.36;100.00
73151;BME280;61354;50.758;6.106;2024-02-14T02:24:48;99045.53;;;10.51;99.17
73151;BME280;61354;50.758;6.106;2024-02-14T02:27:34;99060.22;;;10.52;98.70
73151;BME280;61354;50.758;6.106;2024-02-14T02:30:21;99059.94;;;10.57;98.50
73151;BME280;61354;50.758;6.106;2024-02-14T02:33:05;99051.44;;;10.34;98.94
73151;BME280;61354;50.758;6.106;2024-02-14T02:35:51;99051.41;;;10.65;98.58
73151;BME280;61354;50.758;6.106;2024-02-14T02:38:35;99050.75;;;10.37;99.04
73151;BME280;61354;50.758;6.106;2024-02-14T02:41:20;99051.25;;;10.58;97.94
73151;BME280;61354;50.758;6.106;2024-02-14T02:44:04;99046.75;;;10.69;98.43
73151;BME280;61354;50.758;6.106;2024-02-14T02:46:50;99043.84;;;10.82;97.65
73151;BME280;61354;50.758;6.106;2024-02-14T02:49:35;99046.13;;;10.60;99.08
73151;BME280;61354;50.758;6.106;2024-02-14T02:52:20;99054.72;;;10.87;98.09
73151;BME280;61354;50.758;6.106;2024-02-14T02:55:05;99044.53;;;10.59;99.44
73151;BME280;61354;50.758;6.106;2024-02-14T02:57:49;99035.78;;;10.26;100.00
73151;BME280;61354;50.758;6.106;2024-02-14T03:00:34;99044.22;;;10.80;99.92
73151;BME280;61354;50.758;6.106;2024-02-14T03:03:18;99050.00;;;10.40;100.00
73151;BME280;61354;50.758;6.106;2024-02-14T03:06:03;99048.50;;;10.42;100.00
73151;BME280;61354;50.758;6.106;2024-02-14T03:08:47;99051.09;;;10.51;100.00
73151;BME280;61354;50.758;6.106;2024-02-14T03:11:33;99050.72;;;10.53;100.00
73151;BME280;61354;50.758;6.106;2024-02-14T03:14:16;99049.53;;;10.69;100.00
73151;BME280;61354;50.758;6.106;2024-02-14T03:17:04;99042.28;;;10.49;100.00
73151;BME280;61354;50.758;6.106;2024-02-14T03:19:48;99040.41;;;10.53;100.00
73151;BME280;61354;50.758;6.106;2024-02-14T03:22:36;99033.44;;;10.43;100.00
73151;BME280;61354;50.758;6.106;2024-02-14T03:25:21;99045.44;;;10.63;100.00
73151;BME280;61354;50.758;6.106;2024-02-14T03:28:05;99035.59;;;10.50;100.00
73151;BME280;61354;50.758;6.106;2024-02-14T03:30:52;99047.03;;;10.49;100.00
73151;BME280;61354;50.758;6.106;2024-02-14T03:33:36;99034.59;;;10.58;100.00
73151;BME280;61354;50.758;6.106;2024-02-14T03:36:20;99038.28;;;10.47;100.00
73151;BME280;61354;50.758;6.106;2024-02-14T03:39:04;99047.31;;;10.59;100.00
73151;BME280;61354;50.758;6.106;2024-02-14T03:41:49;99044.44;;;10.72;100.00
73151;BME280;61354;50.758;6.106;2024-02-14T03:44:33;99043.63;;;10.71;100.00
73151;BME280;61354;50.758;6.106;2024-02-14T03:47:17;99040.88;;;10.39;100.00
73151;BME280;61354;50.758;6.106;2024-02-14T03:50:02;99044.06;;;10.57;100.00
73151;BME280;61354;50.758;6.106;2024-02-14T03:52:48;99047.50;;;10.35;100.00
73151;BME280;61354;50.758;6.106;2024-02-14T03:55:33;99043.56;;;10.36;100.00
73151;BME280;61354;50.758;6.106;2024-02-14T03:58:17;99058.03;;;10.61;100.00
73151;BME280;61354;50.758;6.106;2024-02-14T04:01:04;99060.69;;;10.38;100.00
73151;BME280;61354;50.758;6.106;2024-02-14T04:03:48;99067.25;;;10.17;100.00
73151;BME280;61354;50.758;6.106;2024-02-14T04:06:32;99064.44;;;10.30;100.00
73151;BME280;61354;50.758;6.106;2024-02-14T04:09:16;99065.59;;;10.44;100.00
73151;BME280;61354;50.758;6.106;2024-02-14T04:12:01;99064.88;;;10.48;100.00
73151;BME280;61354;50.758;6.106;2024-02-14T04:14:45;99062.91;;;10.48;100.00
73151;BME280;61354;50.758;6.106;2024-02-14T04:17:29;99064.44;;;10.45;100.00
73151;BME280;61354;50.758;6.106;2024-02-14T04:20:13;99065.75;;;10.36;100.00
73151;BME280;61354;50.758;6.106;2024-02-14T04:22:57;99074.28;;;10.27;100.00
73151;BME280;61354;50.758;6.106;2024-02-14T04:25:42;99060.06;;;10.29;100.00
73151;BME280;61354;50.758;6.106;2024-02-14T04:28:26;99079.63;;;10.36;100.00
73151;BME280;61354;50.758;6.106;2024-02-14T04:31:10;99075.59;;;10.49;100.00
73151;BME280;61354;50.758;6.106;2024-02-14T04:33:54;99079.91;;;10.31;100.00
73151;BME280;61354;50.758;6.106;2024-02-14T04:36:38;99082.53;;;10.11;100.00
73151;BME280;61354;50.758;6.106;2024-02-14T04:39:23;99082.31;;;10.32;100.00
73151;BME280;61354;50.758;6.106;2024-02-14T04:42:08;99085.25;;;10.24;100.00
73151;BME280;61354;50.758;6.106;2024-02-14T04:44:52;99076.47;;;10.21;100.00
73151;BME280;61354;50.758;6.106;2024-02-14T04:47:36;99089.47;;;10.17;100.00
73151;BME280;61354;50.758;6.106;2024-02-14T04:50:20;99076.78;;;10.32;100.00
73151;BME280;61354;50.758;6.106;2024-02-14T04:53:04;99079.25;;;10.21;100.00
73151;BME280;61354;50.758;6.106;2024-02-14T04:55:48;99083.38;;;10.12;100.00
73151;BME280;61354;50.758;6.106;2024-02-14T04:58:32;99090.00;;;10.23;100.00
73151;BME280;61354;50.758;6.106;2024-02-14T05:01:16;99087.72;;;10.41;100.00
73151;BME280;61354;50.758;6.106;2024-02-14T05:04:02;99095.88;;;10.34;100.00
73151;BME280;61354;50.758;6.106;2024-02-14T05:06:46;99092.19;;;10.45;100.00
73151;BME280;61354;50.758;6.106;2024-02-14T05:09:31;99101.69;;;10.29;100.00
73151;BME280;61354;50.758;6.106;2024-02-14T05:12:14;99100.28;;;10.23;100.00
73151;BME280;61354;50.758;6.106;2024-02-14T05:14:58;99108.38;;;10.28;100.00
73151;BME280;61354;50.758;6.106;2024-02-14T05:17:42;99100.16;;;10.47;100.00
73151;BME280;61354;50.758;6.106;2024-02-14T05:20:27;99098.72;;;10.53;100.00
73151;BME280;61354;50.758;6.106;2024-02-14T05:23:11;99106.59;;;10.51;100.00
73151;BME280;61354;50.758;6.106;2024-02-14T05:25:55;99111.81;;;10.37;100.00
73151;BME280;61354;50.758;6.106;2024-02-14T05:28:39;99100.59;;;10.49;100.00
73151;BME280;61354;50.758;6.106;2024-02-14T05:31:23;99098.09;;;10.44;100.00
73151;BME280;61354;50.758;6.106;2024-02-14T05:34:07;99111.00;;;10.68;100.00
73151;BME280;61354;50.758;6.106;2024-02-14T05:36:52;99108.59;;;10.51;100.00
73151;BME280;61354;50.758;6.106;2024-02-14T05:39:36;99113.16;;;10.43;100.00
73151;BME280;61354;50.758;6.106;2024-02-14T05:42:20;99102.75;;;10.56;100.00
73151;BME280;61354;50.758;6.106;2024-02-14T05:45:05;99105.81;;;10.51;100.00
73151;BME280;61354;50.758;6.106;2024-02-14T05:47:49;99103.03;;;10.35;100.00
73151;BME280;61354;50.758;6.106;2024-02-14T05:50:33;99101.41;;;10.50;100.00
73151;BME280;61354;50.758;6.106;2024-02-14T05:53:17;99101.50;;;10.53;100.00
73151;BME280;61354;50.758;6.106;2024-02-14T05:56:01;99094.88;;;10.58;100.00
73151;BME280;61354;50.758;6.106;2024-02-14T05:58:45;99096.69;;;10.66;100.00
73151;BME280;61354;50.758;6.106;2024-02-14T06:01:30;99098.00;;;10.56;100.00
73151;BME280;61354;50.758;6.106;2024-02-14T06:04:14;99097.09;;;10.52;100.00
73151;BME280;61354;50.758;6.106;2024-02-14T06:06:58;99105.34;;;10.33;100.00
73151;BME280;61354;50.758;6.106;2024-02-14T06:09:41;99108.28;;;10.40;100.00
73151;BME280;61354;50.758;6.106;2024-02-14T06:12:25;99101.50;;;10.37;100.00
73151;BME280;61354;50.758;6.106;2024-02-14T06:15:09;99105.72;;;10.47;100.00
73151;BME280;61354;50.758;6.106;2024-02-14T06:17:54;99103.56;;;10.56;100.00
73151;BME280;61354;50.758;6.106;2024-02-14T06:20:38;99104.44;;;10.60;100.00
73151;BME280;61354;50.758;6.106;2024-02-14T06:23:23;99109.28;;;10.48;100.00
73151;BME280;61354;50.758;6.106;2024-02-14T06:26:07;99104.81;;;10.75;100.00
73151;BME280;61354;50.758;6.106;2024-02-14T06:28:51;99112.97;;;10.52;100.00
73151;BME280;61354;50.758;6.106;2024-02-14T06:31:38;99110.63;;;10.69;100.00
73151;BME280;61354;50.758;6.106;2024-02-14T06:34:22;99100.97;;;10.79;100.00
73151;BME280;61354;50.758;6.106;2024-02-14T06:37:05;99111.69;;;10.81;100.00
73151;BME280;61354;50.758;6.106;2024-02-14T06:39:49;99115.75;;;10.67;100.00
73151;BME280;61354;50.758;6.106;2024-02-14T06:42:34;99122.00;;;10.64;100.00
73151;BME280;61354;50.758;6.106;2024-02-14T06:45:18;99135.06;;;10.95;100.00
73151;BME280;61354;50.758;6.106;2024-02-14T06:48:02;99132.75;;;10.82;100.00
73151;BME280;61354;50.758;6.106;2024-02-14T06:50:46;99130.06;;;10.69;100.00
73151;BME280;61354;50.758;6.106;2024-02-14T06:53:30;99137.41;;;10.78;100.00
73151;BME280;61354;50.758;6.106;2024-02-14T06:56:14;99136.88;;;10.72;100.00
73151;BME280;61354;50.758;6.106;2024-02-14T06:58:58;99147.91;;;10.68;100.00
73151;BME280;61354;50.758;6.106;2024-02-14T07:01:44;99153.88;;;11.02;100.00
73151;BME280;61354;50.758;6.106;2024-02-14T07:04:27;99155.16;;;10.89;100.00
73151;BME280;61354;50.758;6.106;2024-02-14T07:07:12;99154.22;;;11.16;100.00
73151;BME280;61354;50.758;6.106;2024-02-14T07:09:55;99151.88;;;11.18;100.00
73151;BME280;61354;50.758;6.106;2024-02-14T07:12:39;99158.00;;;11.08;100.00
73151;BME280;61354;50.758;6.106;2024-02-14T07:15:24;99144.31;;;11.00;100.00
73151;BME280;61354;50.758;6.106;2024-02-14T07:18:12;99150.13;;;10.94;100.00
73151;BME280;61354;50.758;6.106;2024-02-14T07:20:56;99152.97;;;10.98;100.00
73151;BME280;61354;50.758;6.106;2024-02-14T07:23:39;99149.13;;;11.03;100.00
73151;BME280;61354;50.758;6.106;2024-02-14T07:26:23;99160.22;;;11.03;100.00
73151;BME280;61354;50.758;6.106;2024-02-14T07:29:07;99150.38;;;11.05;100.00
73151;BME280;61354;50.758;6.106;2024-02-14T07:31:51;99157.19;;;11.08;100.00
73151;BME280;61354;50.758;6.106;2024-02-14T07:34:38;99156.13;;;10.97;100.00
73151;BME280;61354;50.758;6.106;2024-02-14T07:37:23;99162.44;;;11.29;100.00
73151;BME280;61354;50.758;6.106;2024-02-14T07:40:07;99159.69;;;11.29;100.00
73151;BME280;61354;50.758;6.106;2024-02-14T07:42:51;99157.03;;;11.36;100.00
73151;BME280;61354;50.758;6.106;2024-02-14T07:45:36;99148.97;;;11.31;100.00
73151;BME280;61354;50.758;6.106;2024-02-14T07:48:20;99153.41;;;11.51;100.00
73151;BME280;61354;50.758;6.106;2024-02-14T07:51:09;99154.47;;;11.62;100.00
73151;BME280;61354;50.758;6.106;2024-02-14T07:53:53;99158.09;;;11.47;100.00
73151;BME280;61354;50.758;6.106;2024-02-14T07:56:37;99163.34;;;11.52;100.00
73151;BME280;61354;50.758;6.106;2024-02-14T07:59:21;99162.69;;;11.39;100.00
73151;BME280;61354;50.758;6.106;2024-02-14T08:02:05;99173.16;;;11.46;100.00
73151;BME280;61354;50.758;6.106;2024-02-14T08:04:49;99173.94;;;11.62;100.00
73151;BME280;61354;50.758;6.106;2024-02-14T08:07:32;99171.81;;;11.40;100.00
73151;BME280;61354;50.758;6.106;2024-02-14T08:10:16;99173.34;;;11.73;100.00
73151;BME280;61354;50.758;6.106;2024-02-14T08:13:01;99167.19;;;11.63;100.00
73151;BME280;61354;50.758;6.106;2024-02-14T08:15:44;99164.50;;;11.67;100.00
73151;BME280;61354;50.758;6.106;2024-02-14T08:18:29;99175.41;;;11.76;100.00
73151;BME280;61354;50.758;6.106;2024-02-14T08:21:13;99166.38;;;11.63;100.00
73151;BME280;61354;50.758;6.106;2024-02-14T08:23:57;99173.03;;;11.78;100.00
73151;BME280;61354;50.758;6.106;2024-02-14T08:26:42;99172.66;;;11.95;100.00
73151;BME280;61354;50.758;6.106;2024-02-14T08:29:27;99176.53;;;12.10;100.00
73151;BME280;61354;50.758;6.106;2024-02-14T08:32:11;99171.59;;;12.23;100.00
73151;BME280;61354;50.758;6.106;2024-02-14T08:34:55;99171.59;;;12.23;100.00
73151;BME280;61354;50.758;6.106;2024-02-14T08:37:39;99169.06;;;12.14;100.00
73151;BME280;61354;50.758;6.106;2024-02-14T08:40:24;99172.06;;;12.25;100.00
73151;BME280;61354;50.758;6.106;2024-02-14T08:43:08;99176.38;;;12.22;99.84
73151;BME280;61354;50.758;6.106;2024-02-14T08:45:52;99185.97;;;12.25;100.00
73151;BME280;61354;50.758;6.106;2024-02-14T08:48:37;99186.38;;;12.46;98.45
73151;BME280;61354;50.758;6.106;2024-02-14T08:51:25;99176.44;;;12.26;99.23
73151;BME280;61354;50.758;6.106;2024-02-14T08:54:09;99184.56;;;12.34;97.69
73151;BME280;61354;50.758;6.106;2024-02-14T08:56:54;99181.81;;;12.57;96.80
73151;BME280;61354;50.758;6.106;2024-02-14T08:59:39;99187.97;;;12.47;97.70
73151;BME280;61354;50.758;6.106;2024-02-14T09:02:25;99190.00;;;12.69;95.91
73151;BME280;61354;50.758;6.106;2024-02-14T09:05:09;99185.34;;;12.77;95.42
73151;BME280;61354;50.758;6.106;2024-02-14T09:07:54;99186.53;;;12.53;96.52
73151;BME280;61354;50.758;6.106;2024-02-14T09:10:38;99180.47;;;12.71;95.71
73151;BME280;61354;50.758;6.106;2024-02-14T09:13:22;99191.59;;;12.71;95.86
73151;BME280;61354;50.758;6.106;2024-02-14T09:16:08;99196.91;;;12.56;95.99
73151;BME280;61354;50.758;6.106;2024-02-14T09:18:52;99199.47;;;12.88;94.84
73151;BME280;61354;50.758;6.106;2024-02-14T09:21:36;99200.84;;;12.75;95.06
73151;BME280;61354;50.758;6.106;2024-02-14T09:24:20;99202.13;;;12.81;94.80
73151;BME280;61354;50.758;6.106;2024-02-14T09:27:04;99206.97;;;12.84;94.48
73151;BME280;61354;50.758;6.106;2024-02-14T09:29:49;99216.13;;;12.84;94.57
73151;BME280;61354;50.758;6.106;2024-02-14T09:32:33;99210.63;;;13.11;94.26
73151;BME280;61354;50.758;6.106;2024-02-14T09:35:17;99217.25;;;12.80;94.39
73151;BME280;61354;50.758;6.106;2024-02-14T09:38:01;99235.03;;;12.94;94.57
73151;BME280;61354;50.758;6.106;2024-02-14T09:40:46;99237.38;;;12.92;94.72
73151;BME280;61354;50.758;6.106;2024-02-14T09:43:49;99238.50;;;12.68;96.14
73151;BME280;61354;50.758;6.106;2024-02-14T09:46:35;99231.41;;;12.71;95.45
73151;BME280;61354;50.758;6.106;2024-02-14T09:49:19;99227.81;;;12.93;95.04
73151;BME280;61354;50.758;6.106;2024-02-14T09:52:05;99225.78;;;12.67;95.77
73151;BME280;61354;50.758;6.106;2024-02-14T09:54:51;99235.88;;;12.76;96.37
73151;BME280;61354;50.758;6.106;2024-02-14T09:57:37;99242.06;;;12.65;98.08
73151;BME280;61354;50.758;6.106;2024-02-14T10:00:25;99248.34;;;12.82;98.43
73151;BME280;61354;50.758;6.106;2024-02-14T10:03:10;99239.13;;;12.58;100.00
73151;BME280;61354;50.758;6.106;2024-02-14T10:05:54;99260.63;;;12.81;99.43
73151;BME280;61354;50.758;6.106;2024-02-14T10:08:40;99245.09;;;12.80;99.59
73151;BME280;61354;50.758;6.106;2024-02-14T10:11:24;99249.75;;;12.95;100.00
73151;BME280;61354;50.758;6.106;2024-02-14T10:14:11;99252.22;;;12.77;100.00
73151;BME280;61354;50.758;6.106;2024-02-14T10:16:56;99246.16;;;12.52;100.00
73151;BME280;61354;50.758;6.106;2024-02-14T10:19:40;99251.94;;;12.63;100.00
73151;BME280;61354;50.758;6.106;2024-02-14T10:22:25;99253.69;;;12.71;100.00
73151;BME280;61354;50.758;6.106;2024-02-14T10:25:09;99251.38;;;12.73;100.00
73151;BME280;61354;50.758;6.106;2024-02-14T10:27:54;99254.66;;;13.02;100.00
73151;BME280;61354;50.758;6.106;2024-02-14T10:30:38;99256.56;;;12.98;100.00
73151;BME280;61354;50.758;6.106;2024-02-14T10:33:24;99248.31;;;13.24;100.00
73151;BME280;61354;50.758;6.106;2024-02-14T10:36:12;99244.78;;;12.85;100.00
73151;BME280;61354;50.758;6.106;2024-02-14T10:38:57;99240.16;;;13.15;100.00
73151;BME280;61354;50.758;6.106;2024-02-14T10:41:45;99238.41;;;12.84;100.00
73151;BME280;61354;50.758;6.106;2024-02-14T10:44:30;99244.09;;;13.14;100.00
73151;BME280;61354;50.758;6.106;2024-02-14T10:47:19;99251.31;;;13.15;100.00
73151;BME280;61354;50.758;6.106;2024-02-14T10:50:07;99251.59;;;13.10;100.00
73151;BME280;61354;50.758;6.106;2024-02-14T10:52:53;99245.94;;;13.03;100.00
73151;BME280;61354;50.758;6.106;2024-02-14T10:55:44;99258.88;;;13.38;100.00
73151;BME280;61354;50.758;6.106;2024-02-14T10:58:30;99252.47;;;13.14;100.00
73151;BME280;61354;50.758;6.106;2024-02-14T11:01:16;99255.47;;;13.25;100.00
73151;BME280;61354;50.758;6.106;2024-02-14T11:04:01;99253.16;;;12.85;100.00
73151;BME280;61354;50.758;6.106;2024-02-14T11:06:47;99237.75;;;12.91;100.00
73151;BME280;61354;50.758;6.106;2024-02-14T11:09:32;99231.81;;;13.15;100.00
73151;BME280;61354;50.758;6.106;2024-02-14T11:12:22;99253.66;;;13.13;100.00
73151;BME280;61354;50.758;6.106;2024-02-14T11:15:21;99255.16;;;13.30;100.00
73151;BME280;61354;50.758;6.106;2024-02-14T11:18:06;99253.31;;;13.15;100.00
73151;BME280;61354;50.758;6.106;2024-02-14T11:20:51;99240.75;;;13.25;100.00
73151;BME280;61354;50.758;6.106;2024-02-14T11:23:35;99242.84;;;13.31;100.00
73151;BME280;61354;50.758;6.106;2024-02-14T11:26:19;99239.84;;;13.43;100.00
73151;BME280;61354;50.758;6.106;2024-02-14T11:29:04;99240.22;;;13.42;99.90
73151;BME280;61354;50.758;6.106;2024-02-14T11:31:47;99240.00;;;13.54;99.04
73151;BME280;61354;50.758;6.106;2024-02-14T11:34:32;99250.25;;;13.47;99.54
73151;BME280;61354;50.758;6.106;2024-02-14T11:37:19;99252.78;;;13.55;99.55
73151;BME280;61354;50.758;6.106;2024-02-14T11:40:05;99249.56;;;13.53;99.52
73151;BME280;61354;50.758;6.106;2024-02-14T11:42:51;99234.78;;;13.26;99.74
73151;BME280;61354;50.758;6.106;2024-02-14T11:45:35;99246.91;;;13.64;99.35
73151;BME280;61354;50.758;6.106;2024-02-14T11:48:22;99247.19;;;13.29;100.00
73151;BME280;61354;50.758;6.106;2024-02-14T11:51:09;99236.25;;;13.70;99.09
73151;BME280;61354;50.758;6.106;2024-02-14T11:53:53;99241.34;;;13.37;100.00
73151;BME280;61354;50.758;6.106;2024-02-14T11:56:38;99233.22;;;13.29;100.00
73151;BME280;61354;50.758;6.106;2024-02-14T11:59:23;99226.47;;;13.30;100.00
73151;BME280;61354;50.758;6.106;2024-02-14T12:02:07;99216.34;;;13.22;100.00
73151;BME280;61354;50.758;6.106;2024-02-14T12:04:51;99218.81;;;13.23;100.00
73151;BME280;61354;50.758;6.106;2024-02-14T12:07:37;99214.03;;;13.24;100.00
73151;BME280;61354;50.758;6.106;2024-02-14T12:10:22;99214.69;;;13.40;100.00
73151;BME280;61354;50.758;6.106;2024-02-14T12:13:07;99221.38;;;13.12;100.00
73151;BME280;61354;50.758;6.106;2024-02-14T12:15:52;99219.25;;;13.02;100.00
73151;BME280;61354;50.758;6.106;2024-02-14T12:18:36;99224.13;;;12.86;100.00
73151;BME280;61354;50.758;6.106;2024-02-14T12:21:20;99222.06;;;12.83;100.00
73151;BME280;61354;50.758;6.106;2024-02-14T12:24:08;99224.53;;;12.88;100.00
73151;BME280;61354;50.758;6.106;2024-02-14T12:26:52;99218.59;;;12.66;100.00
73151;BME280;61354;50.758;6.106;2024-02-14T12:29:37;99222.25;;;12.93;100.00
73151;BME280;61354;50.758;6.106;2024-02-14T12:32:21;99212.66;;;12.91;100.00
73151;BME280;61354;50.758;6.106;2024-02-14T12:35:06;99213.09;;;12.93;100.00
73151;BME280;61354;50.758;6.106;2024-02-14T12:37:50;99212.47;;;13.03;100.00
73151;BME280;61354;50.758;6.106;2024-02-14T12:40:38;99211.28;;;13.04;100.00
73151;BME280;61354;50.758;6.106;2024-02-14T12:43:22;99213.59;;;12.99;100.00
73151;BME280;61354;50.758;6.106;2024-02-14T12:46:06;99217.16;;;12.76;100.00
73151;BME280;61354;50.758;6.106;2024-02-14T12:48:51;99205.16;;;12.95;100.00
73151;BME280;61354;50.758;6.106;2024-02-14T12:51:35;99206.44;;;13.01;100.00
73151;BME280;61354;50.758;6.106;2024-02-14T12:54:22;99208.91;;;12.60;100.00
73151;BME280;61354;50.758;6.106;2024-02-14T12:57:06;99207.97;;;12.95;100.00
73151;BME280;61354;50.758;6.106;2024-02-14T12:59:50;99214.41;;;12.99;100.00
73151;BME280;61354;50.758;6.106;2024-02-14T13:02:37;99214.53;;;13.06;100.00
73151;BME280;61354;50.758;6.106;2024-02-14T13:05:24;99203.75;;;12.82;100.00
73151;BME280;61354;50.758;6.106;2024-02-14T13:08:09;99211.94;;;12.94;100.00
73151;BME280;61354;50.758;6.106;2024-02-14T13:10:56;99211.09;;;13.16;100.00
73151;BME280;61354;50.758;6.106;2024-02-14T13:13:41;99206.66;;;13.12;100.00
73151;BME280;61354;50.758;6.106;2024-02-14T13:16:26;99207.06;;;13.14;100.00
73151;BME280;61354;50.758;6.106;2024-02-14T13:19:09;99215.00;;;13.12;100.00
73151;BME280;61354;50.758;6.106;2024-02-14T13:21:54;99214.69;;;13.17;100.00
73151;BME280;61354;50.758;6.106;2024-02-14T13:24:38;99214.53;;;13.06;100.00
73151;BME280;61354;50.758;6.106;2024-02-14T13:27:22;99218.72;;;13.19;100.00
73151;BME280;61354;50.758;6.106;2024-02-14T13:30:07;99214.91;;;12.82;100.00
73151;BME280;61354;50.758;6.106;2024-02-14T13:32:51;99213.22;;;13.00;100.00
73151;BME280;61354;50.758;6.106;2024-02-14T13:35:35;99210.88;;;13.02;100.00
73151;BME280;61354;50.758;6.106;2024-02-14T13:38:22;99197.84;;;13.10;100.00
73151;BME280;61354;50.758;6.106;2024-02-14T13:41:06;99191.06;;;13.34;100.00
73151;BME280;61354;50.758;6.106;2024-02-14T13:43:49;99186.75;;;13.13;100.00
73151;BME280;61354;50.758;6.106;2024-02-14T13:46:34;99193.06;;;13.33;100.00
73151;BME280;61354;50.758;6.106;2024-02-14T13:49:19;99183.03;;;13.29;100.00
73151;BME280;61354;50.758;6.106;2024-02-14T13:52:06;99184.41;;;13.15;100.00
73151;BME280;61354;50.758;6.106;2024-02-14T13:54:50;99186.22;;;13.27;100.00
73151;BME280;61354;50.758;6.106;2024-02-14T13:57:37;99187.75;;;13.25;100.00
73151;BME280;61354;50.758;6.106;2024-02-14T14:00:24;99185.88;;;13.09;100.00
73151;BME280;61354;50.758;6.106;2024-02-14T14:03:08;99189.28;;;13.22;100.00
73151;BME280;61354;50.758;6.106;2024-02-14T14:05:52;99177.59;;;13.13;100.00
73151;BME280;61354;50.758;6.106;2024-02-14T14:08:36;99192.22;;;13.06;100.00
73151;BME280;61354;50.758;6.106;2024-02-14T14:11:20;99193.81;;;13.07;100.00
73151;BME280;61354;50.758;6.106;2024-02-14T14:14:05;99182.03;;;13.40;100.00
73151;BME280;61354;50.758;6.106;2024-02-14T14:16:49;99186.03;;;13.43;100.00
73151;BME280;61354;50.758;6.106;2024-02-14T14:19:33;99195.81;;;13.07;100.00
73151;BME280;61354;50.758;6.106;2024-02-14T14:22:20;99197.41;;;13.31;100.00
73151;BME280;61354;50.758;6.106;2024-02-14T14:25:05;99195.06;;;13.33;100.00